Time;durP1;ratioP1;P1;durP2;ratioP2;P2;SDS_P1;SDS_P2;PMS_P1;PMS_P2;Temp;Humidity;BMP_temperature;BMP_pressure;BME280_temperature;BME280_humidity;BME280_pressure;Samples;Min_cycle;Max_cycle;Signal;HPM_P1;HPM_P2
2024/02/28 00:01:02;;;;;;;50.38;23.77;;;;;;;6.94;100.00;96419.75;4997368;28;20046;-76
2024/02/28 00:03:27;;;;;;;42.35;22.17;;;;;;;7.05;100.00;96420.00;4998397;28;20615;-73
2024/02/28 00:05:52;;;;;;;44.65;22.30;;;;;;;7.18;100.00;96421.50;5032062;28;20034;-73
2024/02/28 00:08:20;;;;;;;41.53;22.25;;;;;;;7.17;100.00;96422.66;4994913;28;20037;-75
2024/02/28 00:10:46;;;;;;;46.10;23.02;;;;;;;7.14;100.00;96425.28;5003998;28;20045;-75
2024/02/28 00:13:11;;;;;;;43.85;22.83;;;;;;;7.08;100.00;96417.38;4993480;28;20038;-74
2024/02/28 00:15:37;;;;;;;46.88;24.42;;;;;;;7.16;100.00;96421.06;4998960;28;20140;-74
2024/02/28 00:18:03;;;;;;;45.22;23.08;;;;;;;7.10;100.00;96424.44;4998465;28;20096;-77
2024/02/28 00:20:29;;;;;;;43.42;22.40;;;;;;;7.18;100.00;96431.63;4996257;28;20046;-76
2024/02/28 00:22:55;;;;;;;42.53;21.45;;;;;;;7.05;100.00;96430.91;5000766;28;20045;-75
2024/02/28 00:25:20;;;;;;;39.97;21.88;;;;;;;7.08;100.00;96428.28;4995180;28;20397;-75
2024/02/28 00:27:46;;;;;;;40.90;22.83;;;;;;;7.10;100.00;96427.94;5001560;28;20627;-75
2024/02/28 00:30:11;;;;;;;41.75;21.40;;;;;;;7.13;100.00;96426.44;4999299;28;20828;-75
2024/02/28 00:32:37;;;;;;;40.67;22.17;;;;;;;7.19;100.00;96427.75;5010140;28;20096;-73
2024/02/28 00:35:03;;;;;;;45.17;22.73;;;;;;;7.05;100.00;96437.13;5009015;28;20567;-78
2024/02/28 00:37:29;;;;;;;43.97;24.48;;;;;;;7.09;100.00;96442.69;4998245;28;20046;-75
2024/02/28 00:39:55;;;;;;;43.30;22.35;;;;;;;7.03;100.00;96438.63;4999270;28;20084;-74
2024/02/28 00:42:21;;;;;;;39.92;22.75;;;;;;;6.97;100.00;96448.19;4995318;28;20503;-74
2024/02/28 00:44:47;;;;;;;47.13;23.23;;;;;;;6.89;100.00;96448.00;4999810;28;20103;-75
2024/02/28 00:47:12;;;;;;;45.33;24.05;;;;;;;6.84;100.00;96450.19;4995524;28;20050;-74
2024/02/28 00:49:37;;;;;;;49.88;24.60;;;;;;;6.80;100.00;96449.31;4999981;28;20099;-75
2024/02/28 00:52:03;;;;;;;51.03;24.80;;;;;;;6.83;100.00;96454.84;4993611;28;20108;-74
2024/02/28 00:54:29;;;;;;;50.28;24.63;;;;;;;6.76;100.00;96460.09;4998496;28;20069;-74
2024/02/28 00:56:54;;;;;;;46.13;24.38;;;;;;;6.74;100.00;96451.50;5033236;28;20054;-74
2024/02/28 00:59:19;;;;;;;48.10;24.23;;;;;;;6.81;100.00;96461.78;4998126;28;20132;-74
2024/02/28 01:01:45;;;;;;;49.38;24.33;;;;;;;6.83;100.00;96463.00;5003419;28;20037;-74
2024/02/28 01:04:10;;;;;;;50.25;25.15;;;;;;;6.78;100.00;96467.94;4999245;28;20416;-74
2024/02/28 01:06:37;;;;;;;46.30;24.08;;;;;;;6.80;100.00;96468.38;5001911;28;20049;-75
2024/02/28 01:09:03;;;;;;;46.78;24.80;;;;;;;6.77;100.00;96472.59;5006233;28;20049;-76
2024/02/28 01:11:28;;;;;;;49.90;24.67;;;;;;;6.79;100.00;96472.22;5002862;28;20034;-75
2024/02/28 01:13:53;;;;;;;48.28;24.83;;;;;;;6.77;100.00;96478.03;5049577;28;20113;-74
2024/02/28 01:16:19;;;;;;;44.70;24.13;;;;;;;6.84;100.00;96477.41;5017627;28;20061;-73
2024/02/28 01:18:44;;;;;;;46.33;24.35;;;;;;;6.96;100.00;96479.28;5002275;28;20125;-73
2024/02/28 01:21:09;;;;;;;46.22;23.77;;;;;;;6.99;100.00;96482.13;4998300;28;20042;-74
2024/02/28 01:23:35;;;;;;;44.50;23.88;;;;;;;6.97;100.00;96478.13;5003216;28;20080;-74
2024/02/28 01:26:03;;;;;;;49.15;25.25;;;;;;;6.83;100.00;96479.34;5001492;28;20056;-74
2024/02/28 01:28:29;;;;;;;48.08;25.13;;;;;;;6.88;100.00;96476.38;5010281;28;20064;-75
2024/02/28 01:30:54;;;;;;;44.97;24.15;;;;;;;6.91;100.00;96482.25;5011884;28;20038;-74
2024/02/28 01:33:19;;;;;;;45.22;24.23;;;;;;;6.74;100.00;96486.09;4981750;28;20619;-73
2024/02/28 01:35:45;;;;;;;49.78;24.75;;;;;;;6.65;100.00;96478.84;5003364;28;20034;-74
2024/02/28 01:38:10;;;;;;;48.15;24.70;;;;;;;6.76;100.00;96481.88;4999429;28;20037;-74
2024/02/28 01:40:36;;;;;;;46.60;24.30;;;;;;;6.72;100.00;96483.72;5002696;28;20049;-75
2024/02/28 01:43:08;;;;;;;43.53;23.65;;;;;;;6.84;100.00;96480.13;5026354;28;20050;-75
2024/02/28 01:45:33;;;;;;;50.17;25.08;;;;;;;6.86;100.00;96477.84;5036568;28;20037;-74
2024/02/28 01:47:59;;;;;;;46.05;24.88;;;;;;;6.76;100.00;96491.97;5014173;28;20046;-75
2024/02/28 01:50:25;;;;;;;48.72;23.75;;;;;;;6.84;100.00;96485.56;5020994;28;20109;-73
2024/02/28 01:52:50;;;;;;;43.75;24.10;;;;;;;6.91;100.00;96480.31;5013951;28;20046;-73
2024/02/28 01:55:16;;;;;;;46.80;24.35;;;;;;;6.90;100.00;96484.22;5001913;28;20575;-73
2024/02/28 01:57:42;;;;;;;46.67;24.25;;;;;;;6.83;100.00;96484.78;5005501;28;20115;-74
2024/02/28 02:00:08;;;;;;;41.95;23.48;;;;;;;7.04;100.00;96489.22;4996949;28;20041;-74
2024/02/28 02:02:34;;;;;;;42.55;23.05;;;;;;;7.08;100.00;96487.41;5010002;28;20081;-74
2024/02/28 02:04:59;;;;;;;42.50;24.15;;;;;;;7.02;100.00;96486.88;4993997;28;20080;-74
2024/02/28 02:07:25;;;;;;;47.03;24.42;;;;;;;7.01;100.00;96477.09;5004047;28;20050;-74
2024/02/28 02:09:52;;;;;;;43.63;24.50;;;;;;;6.99;100.00;96482.13;4996170;28;20081;-73
2024/02/28 02:12:17;;;;;;;51.40;25.73;;;;;;;6.99;100.00;96479.41;5005809;28;20034;-76
2024/02/28 02:14:50;;;;;;;47.42;24.50;;;;;;;6.95;100.00;96486.69;5000705;28;20511;-74
2024/02/28 02:17:16;;;;;;;42.20;23.55;;;;;;;6.82;100.00;96488.63;5000336;28;20149;-76
2024/02/28 02:19:41;;;;;;;46.80;23.95;;;;;;;6.96;100.00;96490.97;5003226;28;20181;-75
2024/02/28 02:22:08;;;;;;;46.72;23.83;;;;;;;6.97;100.00;96494.47;4999714;28;20042;-74
2024/02/28 02:27:04;;;;;;;47.60;25.17;;;;;;;6.88;100.00;96486.50;4989522;28;20054;-67
2024/02/28 02:29:31;;;;;;;49.00;25.50;;;;;;;6.93;100.00;96499.03;4989333;28;20043;-67
2024/02/28 02:31:56;;;;;;;45.90;23.88;;;;;;;6.83;100.00;96497.63;4991599;28;20081;-68
2024/02/28 02:34:21;;;;;;;47.92;23.58;;;;;;;6.83;100.00;96494.91;4987905;28;20048;-69
2024/02/28 02:36:47;;;;;;;42.85;23.13;;;;;;;6.90;100.00;96497.81;5001636;28;20053;-67
2024/02/28 02:39:12;;;;;;;48.85;24.00;;;;;;;6.86;100.00;96507.78;4993859;28;20038;-68
2024/02/28 02:41:38;;;;;;;43.35;23.25;;;;;;;6.64;100.00;96499.03;4996897;28;20092;-72
2024/02/28 02:44:03;;;;;;;43.08;24.45;;;;;;;6.57;100.00;96503.50;4978159;28;20045;-70
2024/02/28 02:46:29;;;;;;;48.33;25.42;;;;;;;6.62;100.00;96509.47;5002324;28;20044;-70
2024/02/28 02:48:55;;;;;;;46.88;23.98;;;;;;;6.76;100.00;96509.09;5001663;28;20057;-68
2024/02/28 02:51:20;;;;;;;49.38;25.90;;;;;;;6.66;100.00;96509.56;4977425;28;20711;-69
2024/02/28 02:53:46;;;;;;;46.67;24.50;;;;;;;6.65;100.00;96497.91;4980170;28;20050;-68
2024/02/28 02:56:11;;;;;;;46.67;24.88;;;;;;;6.67;100.00;96497.56;4972002;28;20046;-68
2024/02/28 02:58:36;;;;;;;41.42;22.27;;;;;;;6.75;100.00;96504.78;4973324;28;20576;-68
2024/02/28 03:01:02;;;;;;;45.60;23.63;;;;;;;6.66;100.00;96499.50;4979252;28;20043;-68
2024/02/28 03:03:28;;;;;;;43.95;23.27;;;;;;;6.65;100.00;96492.47;4950462;28;20051;-69
2024/02/28 03:05:53;;;;;;;42.78;21.85;;;;;;;6.67;100.00;96497.56;4975407;28;20138;-69
2024/02/28 03:08:19;;;;;;;46.08;23.83;;;;;;;6.73;100.00;96493.44;4972491;28;20488;-68
2024/02/28 03:10:44;;;;;;;46.45;25.08;;;;;;;6.63;100.00;96502.91;4974680;28;20041;-69
2024/02/28 03:13:09;;;;;;;45.92;25.30;;;;;;;6.51;100.00;96498.28;4976907;28;20061;-68
2024/02/28 03:15:35;;;;;;;47.45;24.33;;;;;;;6.51;100.00;96509.16;4979562;28;20042;-69
2024/02/28 03:18:01;;;;;;;45.33;25.23;;;;;;;6.56;100.00;96510.09;4981256;28;20053;-68
2024/02/28 03:20:26;;;;;;;46.17;23.80;;;;;;;6.45;100.00;96510.56;4984026;28;20123;-68
2024/02/28 03:22:52;;;;;;;46.85;24.38;;;;;;;6.53;100.00;96502.59;4980914;28;20054;-69
2024/02/28 03:25:17;;;;;;;46.92;24.75;;;;;;;6.47;100.00;96511.00;4972980;28;20046;-69
2024/02/28 03:27:43;;;;;;;47.92;27.25;;;;;;;6.36;100.00;96500.97;4978622;28;20522;-68
2024/02/28 03:30:08;;;;;;;49.85;23.80;;;;;;;6.30;100.00;96511.25;4964132;28;20054;-69
2024/02/28 03:32:34;;;;;;;49.28;25.40;;;;;;;6.35;100.00;96512.97;4979413;28;20101;-69
2024/02/28 03:34:59;;;;;;;49.00;26.40;;;;;;;6.27;100.00;96520.91;5013961;28;20045;-68
2024/02/28 03:37:25;;;;;;;47.88;25.00;;;;;;;6.24;100.00;96523.53;4985741;28;20050;-68
2024/02/28 03:39:51;;;;;;;49.88;25.70;;;;;;;6.25;100.00;96527.84;4999161;28;20042;-68
2024/02/28 03:42:16;;;;;;;51.97;25.45;;;;;;;6.35;100.00;96534.72;4989881;28;20500;-69
2024/02/28 03:44:42;;;;;;;51.60;27.10;;;;;;;6.26;100.00;96543.78;5000788;28;20515;-68
2024/02/28 03:47:07;;;;;;;51.70;26.52;;;;;;;6.28;100.00;96541.56;4991411;28;20088;-68
2024/02/28 03:49:32;;;;;;;49.28;24.70;;;;;;;6.23;100.00;96530.91;4998762;28;20041;-69
2024/02/28 03:51:58;;;;;;;50.35;25.80;;;;;;;6.25;100.00;96539.50;4998795;28;20068;-68
2024/02/28 03:54:24;;;;;;;51.22;25.77;;;;;;;6.20;100.00;96541.66;4984882;28;20046;-68
2024/02/28 03:56:49;;;;;;;47.88;24.80;;;;;;;6.17;100.00;96540.41;4983176;28;20053;-68
2024/02/28 03:59:14;;;;;;;52.45;27.40;;;;;;;6.13;100.00;96548.47;4986981;28;20050;-68
2024/02/28 04:01:42;;;;;;;51.53;25.25;;;;;;;6.28;100.00;96543.47;4968490;28;20129;-68
2024/02/28 04:04:07;;;;;;;55.22;26.58;;;;;;;6.16;100.00;96548.91;4979699;28;20141;-68
2024/02/28 04:06:33;;;;;;;48.95;24.70;;;;;;;6.23;100.00;96549.94;4999679;28;20517;-69
2024/02/28 04:08:58;;;;;;;49.25;25.17;;;;;;;6.29;100.00;96550.50;4998181;28;20107;-68
2024/02/28 04:11:24;;;;;;;47.00;24.13;;;;;;;6.36;100.00;96556.16;4976570;28;20042;-68
2024/02/28 04:13:50;;;;;;;45.95;24.05;;;;;;;6.32;100.00;96555.25;4993905;28;20046;-68
2024/02/28 04:16:15;;;;;;;51.05;24.23;;;;;;;6.32;100.00;96555.25;4959289;28;20057;-68
2024/02/28 04:18:40;;;;;;;49.83;25.15;;;;;;;6.40;100.00;96557.03;4979717;28;20104;-68
2024/02/28 04:21:06;;;;;;;51.55;26.10;;;;;;;6.29;100.00;96567.59;4989566;28;20050;-68
2024/02/28 04:23:31;;;;;;;46.90;24.02;;;;;;;6.21;100.00;96573.97;4966308;28;20133;-69
2024/02/28 04:25:57;;;;;;;48.55;24.88;;;;;;;6.25;100.00;96572.13;4975140;28;20069;-68
2024/02/28 04:28:22;;;;;;;48.33;24.45;;;;;;;6.25;100.00;96571.34;4984660;28;20112;-68
2024/02/28 04:30:48;;;;;;;48.28;25.58;;;;;;;6.35;100.00;96579.03;4987894;28;20069;-69
2024/02/28 04:33:13;;;;;;;47.97;24.05;;;;;;;6.54;100.00;96575.72;4983371;28;20529;-67
2024/02/28 04:35:38;;;;;;;47.95;23.90;;;;;;;6.39;100.00;96574.50;4986784;28;20047;-69
2024/02/28 04:38:04;;;;;;;43.20;23.95;;;;;;;6.26;100.00;96562.03;4963901;28;20521;-68
2024/02/28 04:40:29;;;;;;;48.17;24.30;;;;;;;6.26;100.00;96570.22;4974777;28;20046;-69
2024/02/28 04:42:55;;;;;;;50.25;23.80;;;;;;;6.39;100.00;96570.97;4979499;28;20100;-69
2024/02/28 04:45:20;;;;;;;42.75;21.35;;;;;;;6.50;100.00;96577.56;4985206;28;20196;-68
2024/02/28 04:47:46;;;;;;;47.42;25.42;;;;;;;6.32;100.00;96588.69;4978121;28;20586;-68
2024/02/28 04:50:11;;;;;;;48.85;25.90;;;;;;;6.10;100.00;96580.97;4972316;28;20065;-68
2024/02/28 04:52:37;;;;;;;49.97;25.27;;;;;;;6.05;100.00;96586.63;4979048;28;20097;-69
2024/02/28 04:55:03;;;;;;;46.55;24.45;;;;;;;6.15;100.00;96588.13;4976918;28;20047;-69
2024/02/28 04:57:29;;;;;;;45.70;22.67;;;;;;;6.16;100.00;96586.97;4962530;28;20049;-69
2024/02/28 04:59:54;;;;;;;47.63;23.95;;;;;;;6.10;100.00;96600.00;4970641;28;20046;-69
2024/02/28 05:02:22;;;;;;;45.55;23.55;;;;;;;6.17;100.00;96599.44;4959033;28;20528;-68
2024/02/28 05:04:47;;;;;;;43.35;22.88;;;;;;;6.14;100.00;96603.66;4978423;28;20512;-68
2024/02/28 05:07:13;;;;;;;45.25;23.98;;;;;;;6.18;100.00;96606.50;4969133;28;20080;-69
2024/02/28 05:09:38;;;;;;;51.33;27.02;;;;;;;6.16;100.00;96606.00;4978345;28;20432;-69
2024/02/28 05:12:04;;;;;;;49.90;24.50;;;;;;;6.18;100.00;96610.00;4974312;28;20137;-69
2024/02/28 05:14:29;;;;;;;49.03;25.40;;;;;;;6.18;100.00;96612.72;4974539;28;20094;-69
2024/02/28 05:16:55;;;;;;;45.55;24.27;;;;;;;6.19;100.00;96608.06;4973296;28;20449;-69
2024/02/28 05:19:20;;;;;;;47.80;24.00;;;;;;;6.09;100.00;96612.03;4972136;28;20234;-68
2024/02/28 05:21:46;;;;;;;54.53;25.58;;;;;;;6.04;100.00;96615.75;4976932;28;20108;-69
2024/02/28 05:24:12;;;;;;;46.15;23.80;;;;;;;6.21;100.00;96622.09;4969259;28;20046;-68
2024/02/28 05:26:38;;;;;;;49.38;26.65;;;;;;;6.10;100.00;96622.56;4971405;28;20057;-69
2024/02/28 05:29:04;;;;;;;49.60;26.15;;;;;;;6.13;100.00;96626.53;4988474;28;20213;-68
2024/02/28 05:31:33;;;;;;;58.17;28.08;;;;;;;6.18;100.00;96629.03;4995472;28;20043;-69
2024/02/28 05:34:00;;;;;;;50.70;25.63;;;;;;;6.18;100.00;96641.84;4983688;28;20045;-68
2024/02/28 05:36:27;;;;;;;52.55;26.75;;;;;;;6.32;100.00;96639.59;5012457;28;20121;-69
2024/02/28 05:38:54;;;;;;;58.35;27.75;;;;;;;6.12;100.00;96647.50;4995728;28;20092;-69
2024/02/28 05:41:20;;;;;;;53.22;28.23;;;;;;;5.99;100.00;96650.53;4986715;28;20129;-69
2024/02/28 05:43:46;;;;;;;53.10;27.73;;;;;;;5.98;100.00;96655.19;5001840;28;20140;-70
2024/02/28 05:46:12;;;;;;;52.85;26.13;;;;;;;6.02;100.00;96660.75;4985243;28;20050;-69
2024/02/28 05:48:37;;;;;;;49.88;26.67;;;;;;;6.18;100.00;96660.88;4990566;28;20042;-70
2024/02/28 05:51:03;;;;;;;50.08;25.52;;;;;;;6.21;100.00;96665.63;4987057;28;20138;-68
2024/02/28 05:53:35;;;;;;;53.38;28.30;;;;;;;6.07;100.00;96674.91;5011800;28;20441;-69
2024/02/28 05:56:01;;;;;;;56.33;27.48;;;;;;;6.07;100.00;96682.28;5000479;28;20512;-69
2024/02/28 05:58:27;;;;;;;54.50;26.45;;;;;;;6.21;100.00;96671.06;4973375;28;20503;-69
2024/02/28 06:00:52;;;;;;;51.03;24.90;;;;;;;6.36;100.00;96675.06;4999845;28;20038;-68
2024/02/28 06:03:18;;;;;;;45.25;24.38;;;;;;;6.44;100.00;96677.63;4993844;28;20494;-69
2024/02/28 06:05:43;;;;;;;55.53;26.15;;;;;;;6.51;100.00;96682.53;4987595;28;20445;-69
2024/02/28 06:08:08;;;;;;;49.72;24.38;;;;;;;6.59;100.00;96684.34;4966959;28;20047;-70
2024/02/28 06:10:34;;;;;;;52.10;24.50;;;;;;;6.58;100.00;96688.19;4971731;28;20516;-69
2024/02/28 06:13:00;;;;;;;51.00;25.75;;;;;;;6.64;100.00;96694.19;4981371;28;20135;-69
2024/02/28 06:15:26;;;;;;;48.70;25.48;;;;;;;6.48;100.00;96694.09;4972910;28;20544;-69
2024/02/28 06:17:51;;;;;;;48.88;24.80;;;;;;;6.61;100.00;96700.31;4979071;28;20054;-70
2024/02/28 06:20:17;;;;;;;47.40;24.70;;;;;;;6.62;100.00;96713.59;4972880;28;20738;-69
2024/02/28 06:22:43;;;;;;;49.78;26.33;;;;;;;6.63;100.00;96712.47;4975898;28;20034;-69
2024/02/28 06:25:19;;;;;;;66.20;33.53;;;;;;;6.64;100.00;96719.47;4986872;28;20045;-68
2024/02/28 06:27:45;;;;;;;50.17;25.67;;;;;;;6.59;100.00;96719.72;4974802;28;20480;-68
2024/02/28 06:30:12;;;;;;;51.17;25.10;;;;;;;6.46;100.00;96718.94;4974001;28;20112;-70
2024/02/28 06:32:37;;;;;;;49.97;24.10;;;;;;;6.54;100.00;96728.13;4972702;28;20042;-70
2024/02/28 06:35:04;;;;;;;47.13;25.30;;;;;;;6.60;100.00;96737.63;4976374;28;20509;-70
2024/02/28 06:37:29;;;;;;;52.17;26.10;;;;;;;6.34;100.00;96734.41;4997110;28;20057;-69
2024/02/28 06:39:55;;;;;;;46.00;23.88;;;;;;;6.56;100.00;96741.38;4983613;28;20050;-69
2024/02/28 06:42:21;;;;;;;44.38;24.35;;;;;;;6.57;100.00;96743.78;4963519;28;20382;-69
2024/02/28 06:44:46;;;;;;;48.67;24.48;;;;;;;6.57;100.00;96756.56;4977634;28;20517;-69
2024/02/28 06:47:11;;;;;;;46.47;24.88;;;;;;;6.64;100.00;96765.75;4956902;28;20061;-69
2024/02/28 06:49:37;;;;;;;53.30;25.98;;;;;;;6.63;100.00;96757.94;4977882;28;20045;-68
2024/02/28 06:52:03;;;;;;;47.03;24.02;;;;;;;6.65;100.00;96764.63;4975483;28;20133;-68
2024/02/28 06:54:29;;;;;;;52.70;26.73;;;;;;;6.74;100.00;96767.25;4987099;28;20113;-69
2024/02/28 06:56:55;;;;;;;46.95;24.65;;;;;;;6.83;100.00;96772.56;4979183;28;20053;-69
2024/02/28 06:59:20;;;;;;;53.50;25.50;;;;;;;6.81;100.00;96766.69;4975387;28;20750;-69
2024/02/28 07:01:46;;;;;;;49.08;25.70;;;;;;;6.85;100.00;96770.31;4974797;28;20073;-69
2024/02/28 07:04:11;;;;;;;59.08;29.27;;;;;;;6.68;100.00;96774.84;4969674;28;20493;-68
2024/02/28 07:06:37;;;;;;;52.13;26.40;;;;;;;6.67;100.00;96781.41;4970497;28;20389;-68
2024/02/28 07:09:03;;;;;;;55.33;27.92;;;;;;;6.71;100.00;96776.06;4987711;28;20043;-69
2024/02/28 07:11:28;;;;;;;52.60;26.42;;;;;;;6.74;100.00;96780.84;4976409;28;20533;-69
2024/02/28 07:13:54;;;;;;;53.58;27.73;;;;;;;6.35;100.00;96779.56;4982153;28;20357;-68
2024/02/28 07:16:19;;;;;;;51.13;27.23;;;;;;;6.38;100.00;96779.66;4998253;28;20056;-68
2024/02/28 07:18:44;;;;;;;59.05;30.45;;;;;;;6.06;100.00;96784.78;5008644;28;20088;-69
2024/02/28 07:21:10;;;;;;;57.60;28.10;;;;;;;6.05;100.00;96791.38;4999305;28;20523;-68
2024/02/28 07:23:40;;;;;;;65.25;32.45;;;;;;;6.17;100.00;96792.53;4979231;28;20049;-68
2024/02/28 07:26:05;;;;;;;61.78;29.83;;;;;;;6.47;100.00;96793.19;4971082;28;20104;-69
2024/02/28 07:28:31;;;;;;;59.70;30.80;;;;;;;6.43;100.00;96798.50;4978260;28;20085;-68
2024/02/28 07:30:56;;;;;;;51.83;26.88;;;;;;;6.59;100.00;96795.94;4978498;28;20054;-68
2024/02/28 07:33:22;;;;;;;58.90;29.17;;;;;;;6.60;100.00;96802.94;4973086;28;20053;-68
2024/02/28 07:35:51;;;;;;;61.05;27.60;;;;;;;6.70;100.00;96807.97;4973597;28;20129;-68
2024/02/28 07:38:20;;;;;;;59.15;32.47;;;;;;;6.58;100.00;96801.69;4986038;28;20046;-69
2024/02/28 07:40:46;;;;;;;59.22;28.83;;;;;;;6.72;100.00;96814.97;4980617;28;20104;-68
2024/02/28 07:43:11;;;;;;;62.95;31.27;;;;;;;6.57;100.00;96808.25;4971479;28;20612;-69
2024/02/28 07:45:36;;;;;;;55.55;29.05;;;;;;;5.91;100.00;96802.50;4966042;28;20053;-68
2024/02/28 07:48:02;;;;;;;57.25;28.30;;;;;;;5.85;100.00;96809.28;4969712;28;20053;-68
2024/02/28 07:50:28;;;;;;;63.42;32.45;;;;;;;5.85;100.00;96808.47;4961156;28;20093;-68
2024/02/28 07:52:56;;;;;;;61.45;29.02;;;;;;;5.88;100.00;96807.81;4980139;28;20042;-68
2024/02/28 07:55:24;;;;;;;71.05;31.70;;;;;;;6.08;100.00;96815.16;4976095;28;20069;-68
2024/02/28 07:57:53;;;;;;;68.50;29.77;;;;;;;5.92;100.00;96823.13;4980205;28;20774;-68
2024/02/28 08:00:19;;;;;;;70.85;33.88;;;;;;;5.67;100.00;96807.81;4974917;28;20046;-68
2024/02/28 08:02:45;;;;;;;78.53;37.58;;;;;;;5.57;100.00;96822.59;4968733;28;20054;-68
2024/02/28 08:05:11;;;;;;;66.00;32.13;;;;;;;5.57;100.00;96817.16;4964483;28;20054;-68
2024/02/28 08:07:36;;;;;;;64.50;30.90;;;;;;;5.76;100.00;96824.84;4979272;28;20041;-68
2024/02/28 08:10:05;;;;;;;72.57;33.20;;;;;;;5.74;100.00;96816.22;4968764;28;20050;-68
2024/02/28 08:12:30;;;;;;;79.63;36.17;;;;;;;5.93;100.00;96827.41;4958303;28;20068;-68
2024/02/28 08:14:56;;;;;;;82.07;37.78;;;;;;;5.97;100.00;96824.06;4971281;28;20481;-68
2024/02/28 08:17:21;;;;;;;70.25;33.60;;;;;;;5.88;100.00;96822.19;4973539;28;20133;-67
2024/02/28 08:19:47;;;;;;;69.53;29.25;;;;;;;5.89;100.00;96825.72;4972746;28;20042;-68
2024/02/28 08:22:12;;;;;;;80.85;34.15;;;;;;;5.91;100.00;96824.25;4973748;28;20042;-68
2024/02/28 08:24:38;;;;;;;58.30;28.95;;;;;;;5.90;100.00;96824.56;4988502;28;20065;-68
2024/02/28 08:27:03;;;;;;;61.85;31.20;;;;;;;5.63;100.00;96828.63;4967196;28;20527;-67
2024/02/28 08:29:29;;;;;;;69.75;31.02;;;;;;;5.60;100.00;96835.53;4973055;28;20046;-67
2024/02/28 08:31:54;;;;;;;71.30;32.38;;;;;;;5.60;100.00;96834.72;4974137;28;20054;-70
2024/02/28 08:34:20;;;;;;;63.40;29.25;;;;;;;5.61;100.00;96831.66;4964048;28;20131;-69
2024/02/28 08:36:45;;;;;;;58.10;29.08;;;;;;;5.88;100.00;96848.56;4974912;28;20049;-70
2024/02/28 08:39:11;;;;;;;57.13;29.90;;;;;;;6.18;100.00;96849.31;4997500;28;20042;-71
2024/02/28 08:41:36;;;;;;;63.42;28.65;;;;;;;6.38;100.00;96847.69;5017165;28;20038;-69
2024/02/28 08:44:02;;;;;;;63.20;30.08;;;;;;;5.99;100.00;96849.00;5011750;28;20117;-68
2024/02/28 08:46:27;;;;;;;61.05;31.08;;;;;;;5.97;100.00;96848.53;4992223;28;20034;-69
2024/02/28 08:48:53;;;;;;;65.43;32.42;;;;;;;6.16;100.00;96858.91;4994331;28;20035;-67
2024/02/28 08:51:18;;;;;;;63.17;31.38;;;;;;;6.16;100.00;96859.75;4966633;28;20390;-69
2024/02/28 08:53:43;;;;;;;68.82;35.25;;;;;;;5.95;100.00;96846.13;4971486;28;20042;-69
2024/02/28 08:56:09;;;;;;;67.97;32.70;;;;;;;6.26;100.00;96853.06;4966413;28;20054;-68
2024/02/28 08:58:34;;;;;;;57.65;27.70;;;;;;;6.47;100.00;96850.31;4977397;28;20112;-67
2024/02/28 09:01:00;;;;;;;62.90;31.70;;;;;;;6.41;100.00;96852.47;4977987;28;20101;-67
2024/02/28 09:03:25;;;;;;;61.40;30.35;;;;;;;6.54;100.00;96863.38;4966541;28;20038;-67
2024/02/28 09:05:51;;;;;;;60.28;29.85;;;;;;;6.32;100.00;96857.97;4970110;28;20117;-67
2024/02/28 09:08:16;;;;;;;61.97;30.70;;;;;;;6.40;100.00;96858.22;4974276;28;20073;-68
2024/02/28 09:10:42;;;;;;;61.42;32.42;;;;;;;6.12;100.00;96859.59;4969379;28;20396;-68
2024/02/28 09:13:07;;;;;;;60.88;30.50;;;;;;;6.04;100.00;96863.19;4975951;28;20069;-68
2024/02/28 09:15:34;;;;;;;63.22;30.05;;;;;;;6.09;100.00;96864.91;4976480;28;20129;-69
2024/02/28 09:18:00;;;;;;;69.82;33.28;;;;;;;6.10;100.00;96861.06;4980077;28;20189;-68
2024/02/28 09:20:26;;;;;;;65.60;31.80;;;;;;;5.93;100.00;96861.97;4989190;28;20170;-69
2024/02/28 09:22:51;;;;;;;63.63;31.30;;;;;;;6.02;100.00;96864.66;5003584;28;20041;-69
2024/02/28 09:25:18;;;;;;;63.63;30.85;;;;;;;6.27;100.00;96871.00;4995906;28;20046;-68
2024/02/28 09:27:43;;;;;;;64.80;29.50;;;;;;;6.19;100.00;96869.94;4987271;28;20046;-69
2024/02/28 09:30:09;;;;;;;64.05;29.85;;;;;;;6.50;100.00;96877.66;4978545;28;20378;-68
2024/02/28 09:32:35;;;;;;;57.80;28.67;;;;;;;6.70;100.00;96878.72;4987259;28;20081;-69
2024/02/28 09:35:00;;;;;;;69.07;31.80;;;;;;;6.59;100.00;96876.75;4994638;28;20038;-68
2024/02/28 09:37:26;;;;;;;76.53;36.10;;;;;;;6.37;100.00;96870.56;4978542;28;20078;-68
2024/02/28 09:39:51;;;;;;;61.92;29.73;;;;;;;6.34;100.00;96875.88;4994858;28;20110;-69
2024/02/28 09:42:17;;;;;;;72.07;35.35;;;;;;;6.58;100.00;96884.13;4987497;28;20394;-69
2024/02/28 09:44:43;;;;;;;65.88;31.83;;;;;;;6.38;100.00;96882.25;4972254;28;20042;-68
2024/02/28 09:47:08;;;;;;;63.15;31.10;;;;;;;6.68;100.00;96891.06;4972097;28;20513;-67
2024/02/28 09:49:37;;;;;;;63.00;30.58;;;;;;;7.10;100.00;96888.22;4981839;28;20479;-68
2024/02/28 09:52:03;;;;;;;68.90;30.70;;;;;;;7.42;100.00;96891.97;4974360;28;20137;-68
2024/02/28 09:54:29;;;;;;;64.75;29.65;;;;;;;7.54;100.00;96882.97;4994707;28;20128;-69
2024/02/28 09:56:55;;;;;;;59.65;28.73;;;;;;;7.76;100.00;96886.34;4971818;28;20051;-69
2024/02/28 09:59:21;;;;;;;72.95;31.92;;;;;;;7.93;100.00;96893.50;4967140;28;21013;-69
2024/02/28 10:01:57;;;;;;;58.15;29.30;;;;;;;7.27;100.00;96898.91;4970877;28;20042;-69
2024/02/28 10:04:27;;;;;;;60.55;30.50;;;;;;;7.70;100.00;96896.72;4958490;28;20066;-70
2024/02/28 10:06:53;;;;;;;64.78;30.58;;;;;;;7.87;100.00;96897.59;4974490;28;20436;-69
2024/02/28 10:09:18;;;;;;;64.45;34.03;;;;;;;7.73;100.00;96901.47;4994958;28;20042;-69
2024/02/28 10:11:46;;;;;;;64.97;32.40;;;;;;;6.98;100.00;96897.16;4983133;28;20034;-70
2024/02/28 10:14:12;;;;;;;62.65;30.80;;;;;;;6.78;100.00;96904.25;4978906;28;20578;-69
2024/02/28 10:16:37;;;;;;;61.90;28.00;;;;;;;7.50;100.00;96905.81;4972360;28;20069;-70
2024/02/28 10:19:05;;;;;;;71.70;30.33;;;;;;;7.64;100.00;96892.63;4978368;28;20038;-67
2024/02/28 10:21:32;;;;;;;56.60;29.77;;;;;;;7.90;100.00;96894.19;4979451;28;20050;-69
2024/02/28 10:23:58;;;;;;;58.83;27.63;;;;;;;7.57;100.00;96893.19;4980820;28;20087;-68
2024/02/28 10:26:23;;;;;;;58.65;29.70;;;;;;;7.56;100.00;96899.81;4976575;28;20050;-69
2024/02/28 10:28:51;;;;;;;61.47;30.73;;;;;;;7.56;100.00;96901.72;4981116;28;20035;-69
2024/02/28 10:31:17;;;;;;;58.35;30.20;;;;;;;7.23;100.00;96894.47;4976535;28;20050;-69
2024/02/28 10:33:42;;;;;;;65.22;31.02;;;;;;;6.97;100.00;96898.28;4979172;28;20408;-68
2024/02/28 10:36:08;;;;;;;64.07;32.30;;;;;;;6.80;100.00;96893.81;4969979;28;20109;-70
2024/02/28 10:38:34;;;;;;;65.78;31.00;;;;;;;6.97;100.00;96894.75;4976432;28;20070;-69
2024/02/28 10:41:01;;;;;;;65.50;32.28;;;;;;;7.53;100.00;96902.41;4993692;28;20084;-70
2024/02/28 10:43:34;;;;;;;58.90;29.90;;;;;;;7.67;100.00;96905.59;5006389;28;20069;-70
2024/02/28 10:46:00;;;;;;;63.75;29.27;;;;;;;8.02;100.00;96902.34;4980337;28;20074;-69
2024/02/28 10:48:26;;;;;;;60.08;29.60;;;;;;;7.30;100.00;96902.88;4975662;28;20425;-70
2024/02/28 10:50:54;;;;;;;63.33;29.00;;;;;;;7.36;100.00;96900.69;4976454;28;20092;-69
2024/02/28 10:53:40;;;;;;;60.38;29.77;;;;;;;7.54;100.00;96910.22;4977091;28;20042;-70
2024/02/28 10:56:08;;;;;;;56.67;28.48;;;;;;;7.63;100.00;96904.66;4989264;23;20133;-69
2024/02/28 10:58:40;;;;;;;62.25;29.75;;;;;;;7.47;100.00;96901.81;5003650;28;20053;-70
2024/02/28 11:01:08;;;;;;;59.67;29.38;;;;;;;7.77;100.00;96898.88;4995447;28;21281;-69
2024/02/28 11:03:34;;;;;;;58.70;29.33;;;;;;;8.18;100.00;96903.19;5008064;28;20053;-69
2024/02/28 11:05:59;;;;;;;55.70;29.40;;;;;;;7.84;100.00;96897.13;4989437;28;20057;-69
2024/02/28 11:08:28;;;;;;;61.25;29.70;;;;;;;7.76;100.00;96889.91;4996654;28;20426;-69
2024/02/28 11:10:57;;;;;;;63.20;30.15;;;;;;;7.84;100.00;96894.41;4996557;28;20038;-70
2024/02/28 11:13:27;;;;;;;61.28;29.42;;;;;;;8.22;100.00;96900.56;4998968;28;20069;-70